KPAH/PAH METAR and TAF weather

Enter ICAO airport designator
Station Type Date Time Source
KPAH METAR 2020/10/22 02:53 UTC NOAA

KPAH 220253Z 15006KT 10SM CLR 20/16 A3011 RMK AO2 SLP192 T02000161 51004


Station Type Date Time Source
KPAH Decoded METAR 2020/10/22 02:53 UTC NOAA

BARKLEY REGIONAL AIRPORT, KY, United States (KPAH) 37-03N 088-46W 118M
Oct 21, 2020 - 10:53 PM EDT / 2020.10.22 0253 UTC
Wind: from the SSE (150 degrees) at 7 MPH (6 KT):0
Visibility: 10 mile(s):0
Sky conditions: clear
Temperature: 68.0 F (20.0 C)
Dew Point: 61.0 F (16.1 C)
Relative Humidity: 78%
Pressure (altimeter): 30.11 in. Hg (1019 hPa)
Pressure tendency: 0.01 inches (0.4 hPa) higher than three hours ago
ob: KPAH 220253Z 15006KT 10SM CLR 20/16 A3011 RMK AO2 SLP192 T02000161 51004
cycle: 3

Station Type Date Time Source
KPAH TAF 2020/10/21 18:30 UTC NOAA

TAF KPAH 211728Z 2118/2218 21005KT P6SM SCT250
FM220300 13005KT P6SM SKC
FM220700 16005KT P6SM FEW250

Example: see airport list